sensor_id;sensor_type;location;lat;lon;timestamp;temperature;humidity
57242;DHT22;43095;53.302;5.786;2024-01-15T00:01:31;3.30;88.10
57242;DHT22;43095;53.302;5.786;2024-01-15T00:03:59;3.30;88.20
57242;DHT22;43095;53.302;5.786;2024-01-15T00:06:27;3.30;88.60
57242;DHT22;43095;53.302;5.786;2024-01-15T00:08:55;3.30;88.50
57242;DHT22;43095;53.302;5.786;2024-01-15T00:11:24;3.30;88.50
57242;DHT22;43095;53.302;5.786;2024-01-15T00:13:52;3.30;88.30
57242;DHT22;43095;53.302;5.786;2024-01-15T00:16:19;3.40;88.80
57242;DHT22;43095;53.302;5.786;2024-01-15T00:18:46;3.30;90.20
57242;DHT22;43095;53.302;5.786;2024-01-15T00:21:16;3.10;90.00
57242;DHT22;43095;53.302;5.786;2024-01-15T00:23:48;2.70;90.80
57242;DHT22;43095;53.302;5.786;2024-01-15T00:26:16;2.40;92.90
57242;DHT22;43095;53.302;5.786;2024-01-15T00:28:44;2.30;94.40
57242;DHT22;43095;53.302;5.786;2024-01-15T00:31:27;2.20;95.60
57242;DHT22;43095;53.302;5.786;2024-01-15T00:34:03;2.10;96.20
57242;DHT22;43095;53.302;5.786;2024-01-15T00:36:33;2.00;97.60
57242;DHT22;43095;53.302;5.786;2024-01-15T00:39:02;1.90;98.20
57242;DHT22;43095;53.302;5.786;2024-01-15T00:41:32;1.80;99.40
57242;DHT22;43095;53.302;5.786;2024-01-15T00:44:02;1.80;99.90
57242;DHT22;43095;53.302;5.786;2024-01-15T00:46:32;1.80;99.90
57242;DHT22;43095;53.302;5.786;2024-01-15T00:48:59;1.90;99.90
57242;DHT22;43095;53.302;5.786;2024-01-15T00:51:28;1.90;99.30
57242;DHT22;43095;53.302;5.786;2024-01-15T00:53:56;1.90;97.40
57242;DHT22;43095;53.302;5.786;2024-01-15T00:56:26;2.00;96.00
57242;DHT22;43095;53.302;5.786;2024-01-15T00:58:53;2.10;95.50
57242;DHT22;43095;53.302;5.786;2024-01-15T01:01:26;2.20;95.50
57242;DHT22;43095;53.302;5.786;2024-01-15T01:03:53;2.20;95.70
57242;DHT22;43095;53.302;5.786;2024-01-15T01:06:21;2.20;96.00
57242;DHT22;43095;53.302;5.786;2024-01-15T01:08:49;2.30;96.50
57242;DHT22;43095;53.302;5.786;2024-01-15T01:11:16;2.30;96.80
57242;DHT22;43095;53.302;5.786;2024-01-15T01:13:43;2.30;96.90
57242;DHT22;43095;53.302;5.786;2024-01-15T01:16:10;2.40;97.20
57242;DHT22;43095;53.302;5.786;2024-01-15T01:18:38;2.30;97.20
57242;DHT22;43095;53.302;5.786;2024-01-15T01:21:09;2.40;97.60
57242;DHT22;43095;53.302;5.786;2024-01-15T01:23:36;2.40;97.20
57242;DHT22;43095;53.302;5.786;2024-01-15T01:26:03;2.50;96.20
57242;DHT22;43095;53.302;5.786;2024-01-15T01:28:30;2.50;95.00
57242;DHT22;43095;53.302;5.786;2024-01-15T01:30:57;2.70;92.50
57242;DHT22;43095;53.302;5.786;2024-01-15T01:33:27;2.80;92.00
57242;DHT22;43095;53.302;5.786;2024-01-15T01:35:55;2.90;92.20
57242;DHT22;43095;53.302;5.786;2024-01-15T01:38:23;2.90;90.50
57242;DHT22;43095;53.302;5.786;2024-01-15T01:40:50;3.00;90.00
57242;DHT22;43095;53.302;5.786;2024-01-15T01:43:17;3.10;90.10
57242;DHT22;43095;53.302;5.786;2024-01-15T01:45:44;3.10;89.70
57242;DHT22;43095;53.302;5.786;2024-01-15T01:48:11;3.10;89.40
57242;DHT22;43095;53.302;5.786;2024-01-15T01:50:39;3.30;90.00
57242;DHT22;43095;53.302;5.786;2024-01-15T01:53:06;3.20;91.20
57242;DHT22;43095;53.302;5.786;2024-01-15T01:55:36;3.10;91.70
57242;DHT22;43095;53.302;5.786;2024-01-15T01:58:05;2.90;91.40
57242;DHT22;43095;53.302;5.786;2024-01-15T02:00:37;2.80;92.30
57242;DHT22;43095;53.302;5.786;2024-01-15T02:03:08;2.80;90.30
57242;DHT22;43095;53.302;5.786;2024-01-15T02:05:36;2.80;90.70
57242;DHT22;43095;53.302;5.786;2024-01-15T02:08:04;2.80;90.30
57242;DHT22;43095;53.302;5.786;2024-01-15T02:10:32;2.80;89.90
57242;DHT22;43095;53.302;5.786;2024-01-15T02:12:59;2.70;90.00
57242;DHT22;43095;53.302;5.786;2024-01-15T02:15:29;2.70;89.10
57242;DHT22;43095;53.302;5.786;2024-01-15T02:18:03;2.80;88.10
57242;DHT22;43095;53.302;5.786;2024-01-15T02:20:32;2.80;88.50
57242;DHT22;43095;53.302;5.786;2024-01-15T02:25:43;2.90;90.30
57242;DHT22;43095;53.302;5.786;2024-01-15T02:28:14;2.90;90.70
57242;DHT22;43095;53.302;5.786;2024-01-15T02:30:43;3.00;90.80
57242;DHT22;43095;53.302;5.786;2024-01-15T02:33:12;3.10;89.70
57242;DHT22;43095;53.302;5.786;2024-01-15T02:35:40;3.10;88.40
57242;DHT22;43095;53.302;5.786;2024-01-15T02:38:08;3.20;88.70
57242;DHT22;43095;53.302;5.786;2024-01-15T02:40:35;3.10;88.30
57242;DHT22;43095;53.302;5.786;2024-01-15T02:43:05;3.00;88.10
57242;DHT22;43095;53.302;5.786;2024-01-15T02:45:35;2.90;88.60
57242;DHT22;43095;53.302;5.786;2024-01-15T02:48:03;2.90;89.50
57242;DHT22;43095;53.302;5.786;2024-01-15T02:50:35;2.80;90.90
57242;DHT22;43095;53.302;5.786;2024-01-15T02:53:02;2.80;92.50
57242;DHT22;43095;53.302;5.786;2024-01-15T02:55:29;2.80;92.50
57242;DHT22;43095;53.302;5.786;2024-01-15T02:57:58;2.80;93.30
57242;DHT22;43095;53.302;5.786;2024-01-15T03:00:26;2.80;93.50
57242;DHT22;43095;53.302;5.786;2024-01-15T03:02:54;2.90;91.50
57242;DHT22;43095;53.302;5.786;2024-01-15T03:05:21;3.00;88.10
57242;DHT22;43095;53.302;5.786;2024-01-15T03:07:49;3.00;87.10
57242;DHT22;43095;53.302;5.786;2024-01-15T03:10:16;3.10;86.80
57242;DHT22;43095;53.302;5.786;2024-01-15T03:12:46;3.10;87.80
57242;DHT22;43095;53.302;5.786;2024-01-15T03:15:13;3.10;87.50
57242;DHT22;43095;53.302;5.786;2024-01-15T03:17:44;3.10;87.40
57242;DHT22;43095;53.302;5.786;2024-01-15T03:20:11;3.10;86.90
57242;DHT22;43095;53.302;5.786;2024-01-15T03:22:39;3.10;87.20
57242;DHT22;43095;53.302;5.786;2024-01-15T03:25:06;3.10;86.80
57242;DHT22;43095;53.302;5.786;2024-01-15T03:27:34;3.10;85.70
57242;DHT22;43095;53.302;5.786;2024-01-15T03:30:01;3.10;88.00
57242;DHT22;43095;53.302;5.786;2024-01-15T03:32:32;2.80;89.10
57242;DHT22;43095;53.302;5.786;2024-01-15T03:34:59;2.60;91.40
57242;DHT22;43095;53.302;5.786;2024-01-15T03:37:27;2.50;91.20
57242;DHT22;43095;53.302;5.786;2024-01-15T03:39:54;2.40;93.20
57242;DHT22;43095;53.302;5.786;2024-01-15T03:42:22;2.20;91.40
57242;DHT22;43095;53.302;5.786;2024-01-15T03:44:49;2.10;90.30
57242;DHT22;43095;53.302;5.786;2024-01-15T03:47:18;2.10;90.50
57242;DHT22;43095;53.302;5.786;2024-01-15T03:49:46;2.00;91.10
57242;DHT22;43095;53.302;5.786;2024-01-15T03:52:13;2.00;91.50
57242;DHT22;43095;53.302;5.786;2024-01-15T03:54:43;2.10;91.50
57242;DHT22;43095;53.302;5.786;2024-01-15T03:57:11;2.10;91.80
57242;DHT22;43095;53.302;5.786;2024-01-15T03:59:40;2.20;92.20
57242;DHT22;43095;53.302;5.786;2024-01-15T04:02:08;2.20;92.20
57242;DHT22;43095;53.302;5.786;2024-01-15T04:04:35;2.20;92.10
57242;DHT22;43095;53.302;5.786;2024-01-15T04:07:03;2.20;92.30
57242;DHT22;43095;53.302;5.786;2024-01-15T04:09:30;2.20;92.70
57242;DHT22;43095;53.302;5.786;2024-01-15T04:11:58;2.20;93.20
57242;DHT22;43095;53.302;5.786;2024-01-15T04:14:28;2.20;93.50
57242;DHT22;43095;53.302;5.786;2024-01-15T04:16:56;2.20;93.60
57242;DHT22;43095;53.302;5.786;2024-01-15T04:19:25;2.10;93.60
57242;DHT22;43095;53.302;5.786;2024-01-15T04:21:53;2.10;93.40
57242;DHT22;43095;53.302;5.786;2024-01-15T04:24:20;2.20;93.50
57242;DHT22;43095;53.302;5.786;2024-01-15T04:26:47;2.20;93.60
57242;DHT22;43095;53.302;5.786;2024-01-15T04:29:15;2.20;90.90
57242;DHT22;43095;53.302;5.786;2024-01-15T04:31:44;2.10;88.80
57242;DHT22;43095;53.302;5.786;2024-01-15T04:34:11;2.10;89.00
57242;DHT22;43095;53.302;5.786;2024-01-15T04:36:41;2.00;89.10
57242;DHT22;43095;53.302;5.786;2024-01-15T04:39:09;2.00;89.80
57242;DHT22;43095;53.302;5.786;2024-01-15T04:41:41;2.00;90.90
57242;DHT22;43095;53.302;5.786;2024-01-15T04:44:11;2.10;92.40
57242;DHT22;43095;53.302;5.786;2024-01-15T04:46:50;2.10;92.80
57242;DHT22;43095;53.302;5.786;2024-01-15T04:49:26;2.10;93.40
57242;DHT22;43095;53.302;5.786;2024-01-15T04:51:54;2.20;93.10
57242;DHT22;43095;53.302;5.786;2024-01-15T04:54:21;2.20;93.10
57242;DHT22;43095;53.302;5.786;2024-01-15T04:56:52;2.20;93.10
57242;DHT22;43095;53.302;5.786;2024-01-15T04:59:21;2.10;93.40
57242;DHT22;43095;53.302;5.786;2024-01-15T05:01:52;2.10;93.70
57242;DHT22;43095;53.302;5.786;2024-01-15T05:04:19;2.20;93.60
57242;DHT22;43095;53.302;5.786;2024-01-15T05:06:48;2.20;93.70
57242;DHT22;43095;53.302;5.786;2024-01-15T05:09:15;2.20;93.60
57242;DHT22;43095;53.302;5.786;2024-01-15T05:11:43;2.20;93.20
57242;DHT22;43095;53.302;5.786;2024-01-15T05:14:10;2.20;92.80
57242;DHT22;43095;53.302;5.786;2024-01-15T05:16:47;2.30;91.50
57242;DHT22;43095;53.302;5.786;2024-01-15T05:19:15;2.30;90.70
57242;DHT22;43095;53.302;5.786;2024-01-15T05:21:42;2.40;89.30
57242;DHT22;43095;53.302;5.786;2024-01-15T05:24:10;2.50;87.50
57242;DHT22;43095;53.302;5.786;2024-01-15T05:26:38;2.50;86.30
57242;DHT22;43095;53.302;5.786;2024-01-15T05:29:06;2.50;86.00
57242;DHT22;43095;53.302;5.786;2024-01-15T05:31:33;2.50;84.80
57242;DHT22;43095;53.302;5.786;2024-01-15T05:34:00;2.50;84.80
57242;DHT22;43095;53.302;5.786;2024-01-15T05:36:29;2.50;84.50
57242;DHT22;43095;53.302;5.786;2024-01-15T05:38:56;2.60;84.60
57242;DHT22;43095;53.302;5.786;2024-01-15T05:41:23;2.60;84.60
57242;DHT22;43095;53.302;5.786;2024-01-15T05:43:51;2.60;85.00
57242;DHT22;43095;53.302;5.786;2024-01-15T05:46:19;2.60;84.70
57242;DHT22;43095;53.302;5.786;2024-01-15T05:48:50;2.70;84.80
57242;DHT22;43095;53.302;5.786;2024-01-15T05:51:17;2.70;85.20
57242;DHT22;43095;53.302;5.786;2024-01-15T05:53:44;2.70;88.20
57242;DHT22;43095;53.302;5.786;2024-01-15T05:56:14;2.50;89.00
57242;DHT22;43095;53.302;5.786;2024-01-15T05:58:41;2.40;88.60
57242;DHT22;43095;53.302;5.786;2024-01-15T06:01:09;2.30;88.60
57242;DHT22;43095;53.302;5.786;2024-01-15T06:03:36;2.20;87.20
57242;DHT22;43095;53.302;5.786;2024-01-15T06:06:03;2.10;85.60
57242;DHT22;43095;53.302;5.786;2024-01-15T06:08:31;2.10;84.50
57242;DHT22;43095;53.302;5.786;2024-01-15T06:10:58;2.00;84.90
57242;DHT22;43095;53.302;5.786;2024-01-15T06:13:28;1.90;85.30
57242;DHT22;43095;53.302;5.786;2024-01-15T06:15:55;1.80;85.80
57242;DHT22;43095;53.302;5.786;2024-01-15T06:18:22;1.70;86.40
57242;DHT22;43095;53.302;5.786;2024-01-15T06:20:50;1.70;86.70
57242;DHT22;43095;53.302;5.786;2024-01-15T06:23:17;1.60;87.30
57242;DHT22;43095;53.302;5.786;2024-01-15T06:25:47;1.60;87.90
57242;DHT22;43095;53.302;5.786;2024-01-15T06:28:14;1.60;88.70
57242;DHT22;43095;53.302;5.786;2024-01-15T06:30:41;1.60;89.50
57242;DHT22;43095;53.302;5.786;2024-01-15T06:33:09;1.60;89.70
57242;DHT22;43095;53.302;5.786;2024-01-15T06:35:36;1.70;90.10
57242;DHT22;43095;53.302;5.786;2024-01-15T06:38:03;1.60;90.10
57242;DHT22;43095;53.302;5.786;2024-01-15T06:40:31;1.60;89.70
57242;DHT22;43095;53.302;5.786;2024-01-15T06:42:58;1.70;89.20
57242;DHT22;43095;53.302;5.786;2024-01-15T06:45:25;1.80;88.70
57242;DHT22;43095;53.302;5.786;2024-01-15T06:47:53;1.80;88.40
57242;DHT22;43095;53.302;5.786;2024-01-15T06:50:20;1.80;88.50
57242;DHT22;43095;53.302;5.786;2024-01-15T06:52:47;1.90;88.70
57242;DHT22;43095;53.302;5.786;2024-01-15T06:55:14;1.90;89.10
57242;DHT22;43095;53.302;5.786;2024-01-15T06:57:41;1.90;88.50
57242;DHT22;43095;53.302;5.786;2024-01-15T07:00:10;1.90;88.60
57242;DHT22;43095;53.302;5.786;2024-01-15T07:02:37;1.90;89.80
57242;DHT22;43095;53.302;5.786;2024-01-15T07:05:07;1.80;91.20
57242;DHT22;43095;53.302;5.786;2024-01-15T07:07:34;1.60;92.00
57242;DHT22;43095;53.302;5.786;2024-01-15T07:10:01;1.40;90.60
57242;DHT22;43095;53.302;5.786;2024-01-15T07:12:30;1.40;89.40
57242;DHT22;43095;53.302;5.786;2024-01-15T07:14:58;1.40;90.70
57242;DHT22;43095;53.302;5.786;2024-01-15T07:17:26;1.40;93.70
57242;DHT22;43095;53.302;5.786;2024-01-15T07:19:53;1.20;95.00
57242;DHT22;43095;53.302;5.786;2024-01-15T07:22:20;1.00;94.00
57242;DHT22;43095;53.302;5.786;2024-01-15T07:24:49;1.00;93.60
57242;DHT22;43095;53.302;5.786;2024-01-15T07:27:16;1.00;93.10
57242;DHT22;43095;53.302;5.786;2024-01-15T07:29:44;1.00;93.20
57242;DHT22;43095;53.302;5.786;2024-01-15T07:32:11;1.10;92.40
57242;DHT22;43095;53.302;5.786;2024-01-15T07:34:38;1.10;92.10
57242;DHT22;43095;53.302;5.786;2024-01-15T07:37:06;1.00;92.60
57242;DHT22;43095;53.302;5.786;2024-01-15T07:39:33;1.00;92.80
57242;DHT22;43095;53.302;5.786;2024-01-15T07:42:01;1.00;92.90
57242;DHT22;43095;53.302;5.786;2024-01-15T07:44:29;1.00;92.90
57242;DHT22;43095;53.302;5.786;2024-01-15T07:46:56;1.00;92.90
57242;DHT22;43095;53.302;5.786;2024-01-15T07:49:23;1.00;92.90
57242;DHT22;43095;53.302;5.786;2024-01-15T07:51:52;0.90;93.10
57242;DHT22;43095;53.302;5.786;2024-01-15T07:54:19;1.00;93.30
57242;DHT22;43095;53.302;5.786;2024-01-15T07:57:00;1.00;93.80
57242;DHT22;43095;53.302;5.786;2024-01-15T07:59:29;1.00;94.40
57242;DHT22;43095;53.302;5.786;2024-01-15T08:01:58;1.10;94.90
57242;DHT22;43095;53.302;5.786;2024-01-15T08:31:54;1.00;97.20
57242;DHT22;43095;53.302;5.786;2024-01-15T08:34:21;1.20;96.00
57242;DHT22;43095;53.302;5.786;2024-01-15T08:36:48;1.40;94.40
57242;DHT22;43095;53.302;5.786;2024-01-15T08:39:16;1.50;90.40
57242;DHT22;43095;53.302;5.786;2024-01-15T08:41:43;1.60;89.60
57242;DHT22;43095;53.302;5.786;2024-01-15T08:44:12;1.70;88.80
57242;DHT22;43095;53.302;5.786;2024-01-15T08:46:47;1.80;89.70
57242;DHT22;43095;53.302;5.786;2024-01-15T08:49:14;1.90;89.70
57242;DHT22;43095;53.302;5.786;2024-01-15T08:51:43;2.00;90.40
57242;DHT22;43095;53.302;5.786;2024-01-15T08:54:14;2.00;91.50
57242;DHT22;43095;53.302;5.786;2024-01-15T08:56:43;2.10;92.70
57242;DHT22;43095;53.302;5.786;2024-01-15T08:59:14;2.00;92.00
57242;DHT22;43095;53.302;5.786;2024-01-15T09:01:44;2.00;92.00
57242;DHT22;43095;53.302;5.786;2024-01-15T09:04:11;2.00;92.10
57242;DHT22;43095;53.302;5.786;2024-01-15T09:06:39;2.00;91.80
57242;DHT22;43095;53.302;5.786;2024-01-15T09:09:06;1.90;90.80
57242;DHT22;43095;53.302;5.786;2024-01-15T09:11:34;1.90;90.50
57242;DHT22;43095;53.302;5.786;2024-01-15T09:14:04;2.00;90.90
57242;DHT22;43095;53.302;5.786;2024-01-15T09:16:31;2.00;89.60
57242;DHT22;43095;53.302;5.786;2024-01-15T09:19:00;2.10;89.40
57242;DHT22;43095;53.302;5.786;2024-01-15T09:21:27;2.10;89.80
57242;DHT22;43095;53.302;5.786;2024-01-15T09:23:55;2.20;91.00
57242;DHT22;43095;53.302;5.786;2024-01-15T09:26:22;2.20;91.90
57242;DHT22;43095;53.302;5.786;2024-01-15T09:28:49;2.20;92.50
57242;DHT22;43095;53.302;5.786;2024-01-15T09:31:16;2.10;92.80
57242;DHT22;43095;53.302;5.786;2024-01-15T09:33:44;2.10;93.20
57242;DHT22;43095;53.302;5.786;2024-01-15T09:36:12;2.20;93.40
57242;DHT22;43095;53.302;5.786;2024-01-15T09:38:40;2.30;94.30
57242;DHT22;43095;53.302;5.786;2024-01-15T09:41:08;2.40;95.00
57242;DHT22;43095;53.302;5.786;2024-01-15T09:43:39;2.40;94.60
57242;DHT22;43095;53.302;5.786;2024-01-15T09:46:07;2.40;94.80
57242;DHT22;43095;53.302;5.786;2024-01-15T09:48:35;2.50;95.20
57242;DHT22;43095;53.302;5.786;2024-01-15T09:51:03;2.50;95.70
57242;DHT22;43095;53.302;5.786;2024-01-15T09:53:31;2.60;94.10
57242;DHT22;43095;53.302;5.786;2024-01-15T09:55:58;2.50;92.80
57242;DHT22;43095;53.302;5.786;2024-01-15T09:58:26;2.40;92.10
57242;DHT22;43095;53.302;5.786;2024-01-15T10:00:57;2.30;94.40
57242;DHT22;43095;53.302;5.786;2024-01-15T10:03:24;2.20;95.50
57242;DHT22;43095;53.302;5.786;2024-01-15T10:05:52;2.10;95.80
57242;DHT22;43095;53.302;5.786;2024-01-15T10:08:20;2.00;97.10
57242;DHT22;43095;53.302;5.786;2024-01-15T10:10:48;2.00;97.50
57242;DHT22;43095;53.302;5.786;2024-01-15T10:13:16;2.00;96.90
57242;DHT22;43095;53.302;5.786;2024-01-15T10:15:47;1.90;96.70
57242;DHT22;43095;53.302;5.786;2024-01-15T10:18:15;1.90;97.00
57242;DHT22;43095;53.302;5.786;2024-01-15T10:20:42;1.90;98.00
57242;DHT22;43095;53.302;5.786;2024-01-15T10:23:10;1.90;97.60
57242;DHT22;43095;53.302;5.786;2024-01-15T10:25:38;2.00;96.00
57242;DHT22;43095;53.302;5.786;2024-01-15T10:28:05;2.10;93.70
57242;DHT22;43095;53.302;5.786;2024-01-15T10:30:33;2.20;92.90
57242;DHT22;43095;53.302;5.786;2024-01-15T10:33:02;2.30;92.50
57242;DHT22;43095;53.302;5.786;2024-01-15T10:35:32;2.40;92.50
57242;DHT22;43095;53.302;5.786;2024-01-15T10:38:00;2.40;89.80
57242;DHT22;43095;53.302;5.786;2024-01-15T10:40:28;2.50;87.70
57242;DHT22;43095;53.302;5.786;2024-01-15T10:42:56;2.60;87.90
57242;DHT22;43095;53.302;5.786;2024-01-15T10:45:24;2.70;89.00
57242;DHT22;43095;53.302;5.786;2024-01-15T10:47:52;2.80;88.80
57242;DHT22;43095;53.302;5.786;2024-01-15T10:50:21;2.90;89.90
57242;DHT22;43095;53.302;5.786;2024-01-15T10:52:48;2.60;90.40
57242;DHT22;43095;53.302;5.786;2024-01-15T10:55:15;2.50;89.10
57242;DHT22;43095;53.302;5.786;2024-01-15T10:57:48;2.50;89.30
57242;DHT22;43095;53.302;5.786;2024-01-15T11:00:17;2.50;90.00
57242;DHT22;43095;53.302;5.786;2024-01-15T11:02:45;2.50;90.30
57242;DHT22;43095;53.302;5.786;2024-01-15T11:05:12;2.30;90.60
57242;DHT22;43095;53.302;5.786;2024-01-15T11:07:40;2.10;93.10
57242;DHT22;43095;53.302;5.786;2024-01-15T11:16:02;1.60;95.90
57242;DHT22;43095;53.302;5.786;2024-01-15T11:18:40;1.50;95.60
57242;DHT22;43095;53.302;5.786;2024-01-15T11:23:59;1.40;96.00
57242;DHT22;43095;53.302;5.786;2024-01-15T11:32:02;1.20;99.90
57242;DHT22;43095;53.302;5.786;2024-01-15T11:34:57;1.20;99.90
57242;DHT22;43095;53.302;5.786;2024-01-15T11:40:36;1.30;97.30
57242;DHT22;43095;53.302;5.786;2024-01-15T11:43:05;1.40;97.00
57242;DHT22;43095;53.302;5.786;2024-01-15T11:45:37;1.40;97.10
57242;DHT22;43095;53.302;5.786;2024-01-15T11:50:44;1.60;95.30
57242;DHT22;43095;53.302;5.786;2024-01-15T11:55:51;1.60;94.30
57242;DHT22;43095;53.302;5.786;2024-01-15T11:58:19;1.60;94.50
57242;DHT22;43095;53.302;5.786;2024-01-15T12:00:48;1.60;94.40
57242;DHT22;43095;53.302;5.786;2024-01-15T12:03:17;1.60;94.90
57242;DHT22;43095;53.302;5.786;2024-01-15T12:05:44;1.70;95.10
57242;DHT22;43095;53.302;5.786;2024-01-15T12:08:12;1.80;95.10
57242;DHT22;43095;53.302;5.786;2024-01-15T12:10:40;2.00;95.30
57242;DHT22;43095;53.302;5.786;2024-01-15T12:13:13;2.20;95.70
57242;DHT22;43095;53.302;5.786;2024-01-15T12:15:42;2.30;95.50
57242;DHT22;43095;53.302;5.786;2024-01-15T12:18:15;2.40;95.80
57242;DHT22;43095;53.302;5.786;2024-01-15T12:20:45;2.50;96.00
57242;DHT22;43095;53.302;5.786;2024-01-15T12:23:15;2.50;96.00
57242;DHT22;43095;53.302;5.786;2024-01-15T12:25:44;2.50;95.40
57242;DHT22;43095;53.302;5.786;2024-01-15T12:28:11;2.50;95.30
57242;DHT22;43095;53.302;5.786;2024-01-15T12:30:39;2.50;95.20
57242;DHT22;43095;53.302;5.786;2024-01-15T12:33:08;2.50;95.00
57242;DHT22;43095;53.302;5.786;2024-01-15T12:35:37;2.60;95.30
57242;DHT22;43095;53.302;5.786;2024-01-15T12:38:04;2.70;88.00
57242;DHT22;43095;53.302;5.786;2024-01-15T12:40:33;2.70;83.70
57242;DHT22;43095;53.302;5.786;2024-01-15T12:43:05;2.80;81.60
57242;DHT22;43095;53.302;5.786;2024-01-15T12:45:34;2.80;85.30
57242;DHT22;43095;53.302;5.786;2024-01-15T12:48:05;2.80;88.40
57242;DHT22;43095;53.302;5.786;2024-01-15T12:50:34;2.70;89.00
57242;DHT22;43095;53.302;5.786;2024-01-15T12:53:02;2.70;84.00
57242;DHT22;43095;53.302;5.786;2024-01-15T12:55:30;2.80;83.20
57242;DHT22;43095;53.302;5.786;2024-01-15T12:57:57;2.90;83.60
57242;DHT22;43095;53.302;5.786;2024-01-15T13:00:24;3.10;84.90
57242;DHT22;43095;53.302;5.786;2024-01-15T13:02:53;3.30;83.90
57242;DHT22;43095;53.302;5.786;2024-01-15T13:05:22;3.40;83.00
57242;DHT22;43095;53.302;5.786;2024-01-15T13:07:51;3.60;82.50
57242;DHT22;43095;53.302;5.786;2024-01-15T13:10:18;3.70;80.70
57242;DHT22;43095;53.302;5.786;2024-01-15T13:12:46;3.80;77.20
57242;DHT22;43095;53.302;5.786;2024-01-15T13:15:13;3.90;77.80
57242;DHT22;43095;53.302;5.786;2024-01-15T13:17:42;3.90;77.00
57242;DHT22;43095;53.302;5.786;2024-01-15T13:20:11;3.90;77.30
57242;DHT22;43095;53.302;5.786;2024-01-15T13:22:40;3.70;76.90
57242;DHT22;43095;53.302;5.786;2024-01-15T13:25:11;3.60;76.60
57242;DHT22;43095;53.302;5.786;2024-01-15T13:27:38;3.50;79.30
57242;DHT22;43095;53.302;5.786;2024-01-15T13:30:07;3.50;80.50
57242;DHT22;43095;53.302;5.786;2024-01-15T13:32:36;3.40;81.70
57242;DHT22;43095;53.302;5.786;2024-01-15T13:35:03;3.30;81.40
57242;DHT22;43095;53.302;5.786;2024-01-15T13:37:34;3.10;81.20
57242;DHT22;43095;53.302;5.786;2024-01-15T13:40:05;3.00;79.90
57242;DHT22;43095;53.302;5.786;2024-01-15T13:42:35;3.00;77.90
57242;DHT22;43095;53.302;5.786;2024-01-15T13:45:05;3.00;78.20
57242;DHT22;43095;53.302;5.786;2024-01-15T13:47:33;3.10;78.30
57242;DHT22;43095;53.302;5.786;2024-01-15T13:50:00;3.10;79.00
57242;DHT22;43095;53.302;5.786;2024-01-15T13:52:27;3.10;78.90
57242;DHT22;43095;53.302;5.786;2024-01-15T13:54:57;3.10;79.70
57242;DHT22;43095;53.302;5.786;2024-01-15T13:57:24;3.10;79.70
57242;DHT22;43095;53.302;5.786;2024-01-15T13:59:51;3.20;80.10
57242;DHT22;43095;53.302;5.786;2024-01-15T14:02:19;3.20;79.30
57242;DHT22;43095;53.302;5.786;2024-01-15T14:04:50;3.20;78.20
57242;DHT22;43095;53.302;5.786;2024-01-15T14:07:17;3.30;78.60
57242;DHT22;43095;53.302;5.786;2024-01-15T14:09:44;3.30;79.70
57242;DHT22;43095;53.302;5.786;2024-01-15T14:12:11;3.10;82.40
57242;DHT22;43095;53.302;5.786;2024-01-15T14:14:39;2.60;85.40
57242;DHT22;43095;53.302;5.786;2024-01-15T14:17:07;2.20;88.40
57242;DHT22;43095;53.302;5.786;2024-01-15T14:19:34;2.00;89.40
57242;DHT22;43095;53.302;5.786;2024-01-15T14:22:06;1.70;91.90
57242;DHT22;43095;53.302;5.786;2024-01-15T14:24:33;1.40;93.70
57242;DHT22;43095;53.302;5.786;2024-01-15T14:27:01;1.30;95.50
57242;DHT22;43095;53.302;5.786;2024-01-15T14:29:28;1.20;96.30
57242;DHT22;43095;53.302;5.786;2024-01-15T14:31:56;1.20;96.50
57242;DHT22;43095;53.302;5.786;2024-01-15T14:34:23;1.20;97.30
57242;DHT22;43095;53.302;5.786;2024-01-15T14:36:52;1.20;97.70
57242;DHT22;43095;53.302;5.786;2024-01-15T14:39:23;1.20;98.20
57242;DHT22;43095;53.302;5.786;2024-01-15T14:41:50;1.40;99.60
57242;DHT22;43095;53.302;5.786;2024-01-15T14:44:18;1.40;96.40
57242;DHT22;43095;53.302;5.786;2024-01-15T14:46:45;1.40;94.00
57242;DHT22;43095;53.302;5.786;2024-01-15T14:49:13;1.40;94.20
57242;DHT22;43095;53.302;5.786;2024-01-15T14:51:42;1.50;94.50
57242;DHT22;43095;53.302;5.786;2024-01-15T14:54:11;1.70;95.30
57242;DHT22;43095;53.302;5.786;2024-01-15T14:56:41;1.70;96.50
57242;DHT22;43095;53.302;5.786;2024-01-15T14:59:09;1.70;97.10
57242;DHT22;43095;53.302;5.786;2024-01-15T15:01:39;1.60;97.40
57242;DHT22;43095;53.302;5.786;2024-01-15T15:04:09;1.60;97.80
57242;DHT22;43095;53.302;5.786;2024-01-15T15:06:39;1.60;98.20
57242;DHT22;43095;53.302;5.786;2024-01-15T15:09:07;1.70;97.60
57242;DHT22;43095;53.302;5.786;2024-01-15T15:11:37;1.70;96.20
57242;DHT22;43095;53.302;5.786;2024-01-15T15:14:06;1.70;93.90
57242;DHT22;43095;53.302;5.786;2024-01-15T15:16:34;1.80;91.70
57242;DHT22;43095;53.302;5.786;2024-01-15T15:19:07;1.80;89.60
57242;DHT22;43095;53.302;5.786;2024-01-15T15:21:36;1.90;90.10
57242;DHT22;43095;53.302;5.786;2024-01-15T15:24:07;2.00;91.60
57242;DHT22;43095;53.302;5.786;2024-01-15T15:26:35;2.00;94.20
57242;DHT22;43095;53.302;5.786;2024-01-15T15:29:03;2.00;94.60
57242;DHT22;43095;53.302;5.786;2024-01-15T15:31:31;1.90;93.80
57242;DHT22;43095;53.302;5.786;2024-01-15T15:33:58;1.80;92.60
57242;DHT22;43095;53.302;5.786;2024-01-15T15:36:26;1.70;91.60
57242;DHT22;43095;53.302;5.786;2024-01-15T15:38:53;1.70;91.70
57242;DHT22;43095;53.302;5.786;2024-01-15T15:41:30;1.60;92.40
57242;DHT22;43095;53.302;5.786;2024-01-15T15:43:58;1.60;92.90
57242;DHT22;43095;53.302;5.786;2024-01-15T15:46:25;1.60;93.60
57242;DHT22;43095;53.302;5.786;2024-01-15T15:49:01;1.60;93.70
57242;DHT22;43095;53.302;5.786;2024-01-15T15:51:36;1.50;94.10
57242;DHT22;43095;53.302;5.786;2024-01-15T15:54:06;1.50;94.40
57242;DHT22;43095;53.302;5.786;2024-01-15T15:56:34;1.40;94.90
57242;DHT22;43095;53.302;5.786;2024-01-15T15:59:06;1.40;95.00
57242;DHT22;43095;53.302;5.786;2024-01-15T16:01:36;1.40;95.30
57242;DHT22;43095;53.302;5.786;2024-01-15T16:04:03;1.40;95.20
57242;DHT22;43095;53.302;5.786;2024-01-15T16:06:35;1.40;95.50
57242;DHT22;43095;53.302;5.786;2024-01-15T16:09:02;1.30;95.40
57242;DHT22;43095;53.302;5.786;2024-01-15T16:11:32;1.30;95.50
57242;DHT22;43095;53.302;5.786;2024-01-15T16:14:00;1.30;95.80
57242;DHT22;43095;53.302;5.786;2024-01-15T16:16:33;1.40;95.80
57242;DHT22;43095;53.302;5.786;2024-01-15T16:19:21;1.40;96.30
57242;DHT22;43095;53.302;5.786;2024-01-15T16:22:08;1.40;96.60
57242;DHT22;43095;53.302;5.786;2024-01-15T16:25:00;1.40;97.00
57242;DHT22;43095;53.302;5.786;2024-01-15T16:27:31;1.40;97.70
57242;DHT22;43095;53.302;5.786;2024-01-15T16:29:59;1.40;98.00
57242;DHT22;43095;53.302;5.786;2024-01-15T16:32:27;1.40;97.80
57242;DHT22;43095;53.302;5.786;2024-01-15T16:34:55;1.40;98.00
57242;DHT22;43095;53.302;5.786;2024-01-15T16:37:22;1.50;93.40
57242;DHT22;43095;53.302;5.786;2024-01-15T16:39:51;1.60;89.70
57242;DHT22;43095;53.302;5.786;2024-01-15T16:42:18;1.70;86.90
57242;DHT22;43095;53.302;5.786;2024-01-15T16:44:46;1.80;87.00
57242;DHT22;43095;53.302;5.786;2024-01-15T16:47:13;1.80;87.80